createdAt,value
2018-12-10T00:02:17.298Z,99571.98
2018-12-10T00:04:45.194Z,99568.50
2018-12-10T00:07:13.121Z,99577.57
2018-12-10T00:09:41.053Z,99577.57
2018-12-10T00:12:08.951Z,99585.37
2018-12-10T00:14:36.874Z,99589.23
2018-12-10T00:17:04.774Z,99585.75
2018-12-10T00:19:32.667Z,99592.66
2018-12-10T00:22:00.991Z,99597.84
2018-12-10T00:24:28.900Z,99594.81
2018-12-10T00:26:56.815Z,99605.13
2018-12-10T00:29:24.761Z,99606.81
2018-12-10T00:31:52.664Z,99616.75
2018-12-10T00:34:20.564Z,99624.12
2018-12-10T00:36:48.691Z,99628.92
2018-12-10T00:39:16.607Z,99621.58
2018-12-10T00:41:44.518Z,99633.24
2018-12-10T00:44:12.463Z,99643.19
2018-12-10T00:46:40.362Z,99642.34
2018-12-10T00:49:08.268Z,99656.16
2018-12-10T00:51:36.201Z,99658.33
2018-12-10T00:54:04.112Z,99666.53
2018-12-10T00:56:32.010Z,99654.44
2018-12-10T00:59:00.118Z,99666.13
2018-12-10T01:01:28.144Z,99666.58
2018-12-10T01:03:56.050Z,99674.34
2018-12-10T01:06:23.979Z,99676.94
2018-12-10T01:08:51.880Z,99686.86
2018-12-10T01:11:19.895Z,99682.05
2018-12-10T01:13:47.953Z,99682.91
2018-12-10T01:16:15.851Z,99685.41
2018-12-10T01:18:43.747Z,99696.97
2018-12-10T01:21:11.680Z,99703.33
2018-12-10T01:23:39.658Z,99704.52
2018-12-10T01:26:07.647Z,99702.59
2018-12-10T01:28:36.197Z,99715.00
2018-12-10T01:31:04.540Z,99725.30
2018-12-10T01:33:32.883Z,99725.22
2018-12-10T01:36:00.824Z,99730.81
2018-12-10T01:38:28.722Z,99723.92
2018-12-10T01:40:56.635Z,99732.14
2018-12-10T01:43:24.675Z,99729.97
2018-12-10T01:45:52.578Z,99741.67
2018-12-10T01:48:20.487Z,99746.41
2018-12-10T01:50:48.421Z,99750.23
2018-12-10T01:53:16.349Z,99757.58
2018-12-10T01:55:44.251Z,99754.98
2018-12-10T01:58:12.196Z,99760.25
2018-12-10T02:00:40.101Z,99765.46
2018-12-10T02:03:07.994Z,99756.87
2018-12-10T02:05:36.095Z,99772.86
2018-12-10T02:08:03.988Z,99748.27
2018-12-10T02:10:31.925Z,99755.61
2018-12-10T02:13:00.008Z,99771.14
2018-12-10T02:15:27.923Z,99775.91
2018-12-10T02:17:55.821Z,99788.84
2018-12-10T02:20:23.755Z,99771.95
2018-12-10T02:22:51.658Z,99793.88
2018-12-10T02:25:19.570Z,99786.88
2018-12-10T02:27:47.497Z,99775.92
2018-12-10T02:30:15.412Z,99788.77
2018-12-10T02:32:43.343Z,99790.45
2018-12-10T02:35:11.247Z,99790.40
2018-12-10T02:37:39.279Z,99790.45
2018-12-10T02:40:07.228Z,99799.58
2018-12-10T02:42:35.243Z,99797.05
2018-12-10T02:45:03.287Z,99799.25
2018-12-10T02:47:31.172Z,99798.44
2018-12-10T02:49:59.065Z,99810.95
2018-12-10T02:52:26.949Z,99807.08
2018-12-10T02:54:54.860Z,99817.87
2018-12-10T02:57:22.841Z,99823.05
2018-12-10T02:59:50.737Z,99821.34
2018-12-10T03:02:18.619Z,99827.39
2018-12-10T03:04:46.520Z,99817.01
2018-12-10T03:07:14.407Z,99823.03
2018-12-10T03:09:42.307Z,99823.90
2018-12-10T03:12:10.186Z,99810.05
2018-12-10T03:14:38.111Z,99821.67
2018-12-10T03:17:05.990Z,99833.73
2018-12-10T03:19:33.902Z,99819.53
2018-12-10T03:22:01.782Z,99840.69
2018-12-10T03:24:29.691Z,99827.33
2018-12-10T03:26:57.577Z,99851.44
2018-12-10T03:29:25.466Z,99848.39
2018-12-10T03:31:53.549Z,99858.30
2018-12-10T03:34:21.538Z,99857.03
2018-12-10T03:36:49.464Z,99860.08
2018-12-10T03:39:17.411Z,99862.70
2018-12-10T03:41:45.308Z,99870.08
2018-12-10T03:44:13.666Z,99877.00
2018-12-10T03:46:42.138Z,99875.25
2018-12-10T03:49:10.108Z,99873.50
2018-12-10T03:51:37.987Z,99885.61
2018-12-10T03:54:05.894Z,99892.11
2018-12-10T03:56:33.774Z,99895.12
2018-12-10T03:59:01.935Z,99905.92
2018-12-10T04:01:29.824Z,99901.66
2018-12-10T04:03:57.715Z,99915.02
2018-12-10T04:06:25.617Z,99912.89
2018-12-10T04:08:53.486Z,99924.05
2018-12-10T04:11:21.375Z,99921.88
2018-12-10T04:13:49.323Z,99917.13
2018-12-10T04:16:17.261Z,99924.86
2018-12-10T04:18:45.130Z,99922.69
2018-12-10T04:21:13.027Z,99930.42
2018-12-10T04:23:40.908Z,99924.83
2018-12-10T04:26:08.829Z,99929.09
2018-12-10T04:28:36.776Z,99945.92
2018-12-10T04:31:04.677Z,99929.52
2018-12-10T04:33:32.635Z,99928.64
2018-12-10T04:36:00.528Z,99937.70
2018-12-10T04:38:28.410Z,99937.66
2018-12-10T04:40:56.302Z,99953.65
2018-12-10T04:43:24.179Z,99952.84
2018-12-10T04:45:52.086Z,99960.19
2018-12-10T04:48:19.963Z,99963.27
2018-12-10T04:50:47.851Z,99959.39
2018-12-10T04:53:15.727Z,99965.47
2018-12-10T04:55:45.403Z,99966.77
2018-12-10T04:58:13.279Z,99956.83
2018-12-10T05:00:41.186Z,99975.38
2018-12-10T05:03:09.085Z,99972.36
2018-12-10T05:05:36.986Z,99982.27
2018-12-10T05:08:05.542Z,99990.48
2018-12-10T05:10:34.139Z,99980.09
2018-12-10T05:13:02.018Z,99986.56
2018-12-10T05:15:29.929Z,99996.47
2018-12-10T05:17:57.812Z,99972.30
2018-12-10T05:20:25.737Z,99994.72
2018-12-10T05:22:53.611Z,100001.16
2018-12-10T05:25:21.515Z,100001.99
2018-12-10T05:27:49.525Z,100008.92
2018-12-10T05:30:17.415Z,100014.94
2018-12-10T05:32:45.308Z,100021.86
2018-12-10T05:35:13.188Z,100019.66
2018-12-10T05:37:41.177Z,100025.22
2018-12-10T05:40:09.179Z,100024.34
2018-12-10T05:42:37.075Z,100011.44
2018-12-10T05:45:06.208Z,100017.03
2018-12-10T05:47:34.102Z,100023.05
2018-12-10T05:50:02.051Z,100023.92
2018-12-10T05:52:29.955Z,100036.87
2018-12-10T05:54:57.838Z,100040.33
2018-12-10T05:57:25.738Z,100052.85
2018-12-10T05:59:53.640Z,100054.60
2018-12-10T06:02:21.629Z,100046.84
2018-12-10T06:04:49.507Z,100055.02
2018-12-10T06:07:17.439Z,100041.63
2018-12-10T06:09:45.324Z,100057.95
2018-12-10T06:12:13.223Z,100052.36
2018-12-10T06:14:41.123Z,100057.08
2018-12-10T06:17:09.079Z,100061.80
2018-12-10T06:19:36.961Z,100068.23
2018-12-10T06:22:04.864Z,100072.95
2018-12-10T06:24:32.743Z,100079.00
2018-12-10T06:27:00.647Z,100077.67
2018-12-10T06:29:28.976Z,100084.90
2018-12-10T06:31:56.887Z,100079.98
2018-12-10T06:34:24.811Z,100089.27
2018-12-10T06:36:52.795Z,100097.81
2018-12-10T06:39:20.685Z,100093.81
2018-12-10T06:41:48.637Z,100097.20
2018-12-10T06:44:16.538Z,100103.58
2018-12-10T06:46:44.431Z,100107.70
2018-12-10T06:49:12.330Z,100122.09
2018-12-10T06:51:40.223Z,100117.63
2018-12-10T06:54:08.131Z,100128.84
2018-12-10T06:56:36.007Z,100133.55
2018-12-10T06:59:04.352Z,100143.06
2018-12-10T07:01:32.905Z,100153.87
2018-12-10T07:04:00.804Z,100147.53
2018-12-10T07:06:28.687Z,100160.89
2018-12-10T07:08:56.607Z,100152.34
2018-12-10T07:11:24.551Z,100151.97
2018-12-10T07:13:52.455Z,100153.72
2018-12-10T07:16:20.359Z,100151.05
2018-12-10T07:18:48.258Z,100152.24
2018-12-10T07:21:16.243Z,100146.94
2018-12-10T07:23:44.162Z,100155.45
2018-12-10T07:26:12.088Z,100155.48
2018-12-10T07:28:40.015Z,100154.23
2018-12-10T07:31:07.915Z,100167.58
2018-12-10T07:33:35.851Z,100160.66
2018-12-10T07:36:03.742Z,100168.79
2018-12-10T07:38:31.658Z,100170.04
2018-12-10T07:40:59.564Z,100177.05
2018-12-10T07:43:27.473Z,100168.13
2018-12-10T07:45:55.351Z,100164.34
2018-12-10T07:48:23.246Z,100164.48
2018-12-10T07:50:51.124Z,100170.16
2018-12-10T07:53:19.049Z,100178.41
2018-12-10T07:55:46.937Z,100177.16
2018-12-10T07:58:14.855Z,100178.97
2018-12-10T08:00:42.748Z,100182.94
2018-12-10T08:03:10.641Z,100180.44
2018-12-10T08:05:38.562Z,100177.06
2018-12-10T08:08:06.438Z,100175.43
2018-12-10T08:10:34.351Z,100184.58
2018-12-10T08:13:02.688Z,100189.42
2018-12-10T08:15:30.614Z,100187.45
2018-12-10T08:17:58.510Z,100197.98
2018-12-10T08:20:26.414Z,100198.56
2018-12-10T08:22:54.291Z,100211.13
2018-12-10T08:25:23.252Z,100210.72
2018-12-10T08:27:51.511Z,100210.34
2018-12-10T08:30:19.430Z,100213.77
2018-12-10T08:32:47.315Z,100202.20
2018-12-10T08:35:15.218Z,100204.73
2018-12-10T08:37:43.511Z,100202.77
2018-12-10T08:40:11.501Z,100190.57
2018-12-10T08:42:39.382Z,100190.95
2018-12-10T08:45:07.368Z,100197.39
2018-12-10T08:47:35.700Z,100204.74
2018-12-10T08:50:04.755Z,100209.08
2018-12-10T08:52:32.655Z,100210.11
2018-12-10T08:55:00.559Z,100204.98
2018-12-10T08:57:28.535Z,100204.42
2018-12-10T08:59:56.795Z,100201.33
2018-12-10T09:02:24.694Z,100210.11
2018-12-10T09:04:52.576Z,100205.52
2018-12-10T09:07:20.471Z,100216.59
2018-12-10T09:09:48.366Z,100207.11
2018-12-10T09:12:16.272Z,100212.28
2018-12-10T09:14:44.159Z,100226.22
2018-12-10T09:17:12.055Z,100227.50
2018-12-10T09:19:40.045Z,100234.45
2018-12-10T09:22:07.951Z,100215.74
2018-12-10T09:24:35.897Z,100225.94
2018-12-10T09:27:03.847Z,100231.03
2018-12-10T09:29:31.885Z,100223.49
2018-12-10T09:32:01.415Z,100234.11
2018-12-10T09:34:29.298Z,100233.42
2018-12-10T09:36:57.207Z,100253.75
2018-12-10T09:39:25.097Z,100237.39
2018-12-10T09:41:52.999Z,100250.08
2018-12-10T09:44:20.913Z,100254.20
2018-12-10T09:46:48.893Z,100250.36
2018-12-10T09:49:17.083Z,100246.64
2018-12-10T09:51:44.972Z,100264.09
2018-12-10T09:54:12.852Z,100249.09
2018-12-10T09:56:40.762Z,100262.34
2018-12-10T09:59:08.643Z,100263.92
2018-12-10T10:01:36.717Z,100256.66
2018-12-10T10:04:06.211Z,100277.52
2018-12-10T10:06:34.108Z,100273.88
2018-12-10T10:09:02.098Z,100277.66
2018-12-10T10:11:29.980Z,100283.66
2018-12-10T10:13:57.911Z,100268.16
2018-12-10T10:16:25.807Z,100278.32
2018-12-10T10:18:53.712Z,100276.14
2018-12-10T10:21:21.618Z,100283.50
2018-12-10T10:23:49.522Z,100284.66
2018-12-10T10:26:18.030Z,100277.13
2018-12-10T10:28:45.964Z,100283.52
2018-12-10T10:31:13.872Z,100277.77
2018-12-10T10:33:41.775Z,100274.89
2018-12-10T10:36:09.662Z,100276.15
2018-12-10T10:38:37.611Z,100274.27
2018-12-10T10:41:05.494Z,100295.44
2018-12-10T10:43:33.375Z,100290.70
2018-12-10T10:46:01.387Z,100296.84
2018-12-10T10:48:29.272Z,100295.78
2018-12-10T10:50:57.162Z,100283.06
2018-12-10T10:53:25.063Z,100289.89
2018-12-10T10:55:52.948Z,100279.06
2018-12-10T10:58:22.442Z,100284.22
2018-12-10T11:00:56.080Z,100303.09
2018-12-10T11:03:29.597Z,100279.20
2018-12-10T11:05:57.631Z,100287.25
2018-12-10T11:08:25.531Z,100271.55
2018-12-10T11:10:53.425Z,100277.41
2018-12-10T11:13:21.556Z,100295.41
2018-12-10T11:15:49.535Z,100289.72
2018-12-10T11:18:17.491Z,100286.67
2018-12-10T11:20:45.992Z,100290.98
2018-12-10T11:23:13.872Z,100288.39
2018-12-10T11:25:41.776Z,100256.88
2018-12-10T11:28:09.666Z,100286.30
2018-12-10T11:30:37.563Z,100276.84
2018-12-10T11:33:05.900Z,100288.97
2018-12-10T11:35:33.812Z,100296.28
2018-12-10T11:38:01.703Z,100301.39
2018-12-10T11:40:29.641Z,100285.19
2018-12-10T11:42:57.527Z,100294.09
2018-12-10T11:45:25.498Z,100288.37
2018-12-10T11:47:53.835Z,100291.34
2018-12-10T11:50:21.794Z,100295.73
2018-12-10T11:52:49.828Z,100269.89
2018-12-10T11:55:17.732Z,100282.94
2018-12-10T11:57:45.625Z,100282.52
2018-12-10T12:00:13.833Z,100279.92
2018-12-10T12:02:41.719Z,100290.33
2018-12-10T12:05:09.611Z,100295.09
2018-12-10T12:07:37.512Z,100287.36
2018-12-10T12:10:06.260Z,100289.98
2018-12-10T12:12:34.473Z,100289.53
2018-12-10T12:15:02.353Z,100287.73
2018-12-10T12:17:30.256Z,100295.47
2018-12-10T12:19:58.158Z,100284.15
2018-12-10T12:22:27.236Z,100274.20
2018-12-10T12:24:55.126Z,100278.05
2018-12-10T12:27:23.951Z,100277.13
2018-12-10T12:29:51.917Z,100294.89
2018-12-10T12:32:19.815Z,100288.48
2018-12-10T12:34:47.699Z,100290.28
2018-12-10T12:37:15.620Z,100277.75
2018-12-10T12:39:43.532Z,100296.22
2018-12-10T12:42:11.442Z,100290.05
2018-12-10T12:44:39.350Z,100287.87
2018-12-10T12:47:07.260Z,100279.14
2018-12-10T12:49:35.180Z,100276.47
2018-12-10T12:52:03.295Z,100279.73
2018-12-10T12:54:31.219Z,100290.81
2018-12-10T12:56:59.112Z,100273.52
2018-12-10T12:59:27.010Z,100266.12
2018-12-10T13:01:55.067Z,100275.81
2018-12-10T13:04:23.382Z,100279.11
2018-12-10T13:06:51.307Z,100270.72
2018-12-10T13:09:21.868Z,100279.73
2018-12-10T13:11:49.106Z,100260.31
2018-12-10T13:14:17.061Z,100269.38
2018-12-10T13:16:49.356Z,100272.01
2018-12-10T13:19:14.930Z,100273.77
2018-12-10T13:21:42.835Z,100280.31
2018-12-10T13:24:10.715Z,100279.52
2018-12-10T13:26:38.605Z,100276.98
2018-12-10T13:29:06.781Z,100280.36
2018-12-10T13:31:35.164Z,100276.27
2018-12-10T13:34:03.048Z,100280.25
2018-12-10T13:36:30.959Z,100273.42
2018-12-10T13:38:58.832Z,100280.03
2018-12-10T13:41:26.740Z,100283.69
2018-12-10T13:43:54.669Z,100281.98
2018-12-10T13:46:22.572Z,100283.50
2018-12-10T13:48:50.548Z,100281.14
2018-12-10T13:51:18.654Z,100286.91
2018-12-10T13:53:46.655Z,100291.25
2018-12-10T13:56:14.533Z,100285.38
2018-12-10T13:58:42.432Z,100287.19
2018-12-10T14:01:10.327Z,100293.33
2018-12-10T14:03:38.216Z,100288.89
2018-12-10T14:06:06.127Z,100287.87
2018-12-10T14:08:34.043Z,100292.59
2018-12-10T14:11:01.945Z,100291.34
2018-12-10T14:13:29.839Z,100310.89
2018-12-10T14:15:57.728Z,100306.27
2018-12-10T14:18:25.636Z,100293.83
2018-12-10T14:20:53.519Z,100300.80
2018-12-10T14:23:21.436Z,100313.75
2018-12-10T14:25:49.325Z,100309.03
2018-12-10T14:28:17.236Z,100315.50
2018-12-10T14:30:45.196Z,100310.70
2018-12-10T14:33:13.098Z,100310.23
2018-12-10T14:35:40.989Z,100309.31
2018-12-10T14:38:08.899Z,100306.73
2018-12-10T14:40:36.794Z,100312.73
2018-12-10T14:43:04.673Z,100323.92
2018-12-10T14:45:32.596Z,100314.86
2018-12-10T14:48:00.569Z,100318.75
2018-12-10T14:50:28.489Z,100304.97
2018-12-10T14:52:56.363Z,100303.22
2018-12-10T14:55:24.426Z,100297.58
2018-12-10T14:57:52.766Z,100311.77
2018-12-10T15:00:20.654Z,100305.72
2018-12-10T15:02:48.659Z,100305.21
2018-12-10T15:05:16.560Z,100317.73
2018-12-10T15:07:44.447Z,100306.36
2018-12-10T15:10:12.381Z,100304.52
2018-12-10T15:12:40.257Z,100307.06
2018-12-10T15:15:08.753Z,100307.48
2018-12-10T15:17:36.655Z,100304.84
2018-12-10T15:20:07.090Z,100304.79
2018-12-10T15:22:34.990Z,100298.73
2018-12-10T15:25:03.232Z,100298.23
2018-12-10T15:27:31.110Z,100296.02
2018-12-10T15:29:59.016Z,100298.52
2018-12-10T15:32:26.921Z,100290.25
2018-12-10T15:34:54.827Z,100289.37
2018-12-10T15:37:23.155Z,100291.53
2018-12-10T15:39:51.056Z,100292.38
2018-12-10T15:42:18.930Z,100292.78
2018-12-10T15:44:46.848Z,100298.79
2018-12-10T15:47:14.725Z,100305.25
2018-12-10T15:49:42.623Z,100306.55
2018-12-10T15:52:10.512Z,100300.03
2018-12-10T15:54:38.439Z,100278.73
2018-12-10T15:57:06.331Z,100276.83
2018-12-10T15:59:34.213Z,100283.38
2018-12-10T16:02:02.115Z,100285.16
2018-12-10T16:04:31.993Z,100283.56
2018-12-10T16:06:59.901Z,100283.10
2018-12-10T16:09:27.803Z,100285.32
2018-12-10T16:11:55.715Z,100289.82
2018-12-10T16:14:23.606Z,100283.09
2018-12-10T16:16:51.529Z,100286.75
2018-12-10T16:19:19.432Z,100282.14
2018-12-10T16:21:47.357Z,100293.45
2018-12-10T16:24:15.242Z,100287.96
2018-12-10T16:26:43.252Z,100286.67
2018-12-10T16:29:11.134Z,100275.95
2018-12-10T16:31:39.047Z,100279.83
2018-12-10T16:34:06.927Z,100289.16
2018-12-10T16:36:34.841Z,100292.02
2018-12-10T16:39:04.000Z,100304.79
2018-12-10T16:41:32.015Z,100301.64
2018-12-10T16:43:59.910Z,100300.26
2018-12-10T16:46:27.783Z,100291.58
2018-12-10T16:48:55.716Z,100293.28
2018-12-10T16:51:23.597Z,100282.48
2018-12-10T16:53:51.500Z,100297.94
2018-12-10T16:56:19.399Z,100295.82
2018-12-10T16:58:47.287Z,100293.59
2018-12-10T17:01:15.168Z,100295.30
2018-12-10T17:03:43.517Z,100296.02
2018-12-10T17:06:11.407Z,100291.54
2018-12-10T17:08:39.289Z,100298.30
2018-12-10T17:11:07.210Z,100291.28
2018-12-10T17:13:35.091Z,100293.34
2018-12-10T17:16:03.017Z,100306.68
2018-12-10T17:18:30.895Z,100289.01
2018-12-10T17:20:58.807Z,100288.08
2018-12-10T17:23:26.820Z,100288.03
2018-12-10T17:25:54.695Z,100282.86
2018-12-10T17:28:22.595Z,100291.03
2018-12-10T17:30:50.487Z,100284.86
2018-12-10T17:33:18.467Z,100281.77
2018-12-10T17:35:46.347Z,100293.39
2018-12-10T17:38:14.247Z,100281.35
2018-12-10T17:40:42.130Z,100285.74
2018-12-10T17:43:10.031Z,100285.45
2018-12-10T17:45:37.923Z,100279.91
2018-12-10T17:48:05.890Z,100287.25
2018-12-10T17:50:33.779Z,100275.16
2018-12-10T17:53:01.679Z,100269.95
2018-12-10T17:55:29.564Z,100264.77
2018-12-10T17:57:57.442Z,100281.92
2018-12-10T18:00:25.347Z,100280.98
2018-12-10T18:02:53.240Z,100274.53
2018-12-10T18:05:21.114Z,100283.16
2018-12-10T18:07:49.180Z,100275.83
2018-12-10T18:10:17.500Z,100271.95
2018-12-10T18:12:45.380Z,100277.06
2018-12-10T18:15:13.350Z,100283.11
2018-12-10T18:17:41.679Z,100260.33
2018-12-10T18:20:09.943Z,100259.03
2018-12-10T18:22:38.143Z,100263.73
2018-12-10T18:25:06.607Z,100248.19
2018-12-10T18:27:34.483Z,100267.09
2018-12-10T18:30:02.388Z,100255.06
2018-12-10T18:32:30.289Z,100245.55
2018-12-10T18:34:58.179Z,100242.05
2018-12-10T18:37:26.076Z,100248.03
2018-12-10T18:39:53.955Z,100242.77
2018-12-10T18:42:21.849Z,100251.38
2018-12-10T18:44:49.761Z,100258.73
2018-12-10T18:47:17.637Z,100251.09
2018-12-10T18:49:45.546Z,100246.84
2018-12-10T18:52:13.438Z,100250.30
2018-12-10T18:54:41.339Z,100249.48
2018-12-10T18:57:09.219Z,100249.53
2018-12-10T18:59:37.135Z,100252.58
2018-12-10T19:02:05.306Z,100253.50
2018-12-10T19:04:33.242Z,100249.21
2018-12-10T19:07:01.135Z,100248.81
2018-12-10T19:09:29.033Z,100246.23
2018-12-10T19:11:56.923Z,100253.14
2018-12-10T19:14:25.285Z,100253.04
2018-12-10T19:16:53.163Z,100250.87
2018-12-10T19:19:21.094Z,100252.58
2018-12-10T19:21:48.977Z,100256.91
2018-12-10T19:24:16.882Z,100250.45
2018-12-10T19:26:44.770Z,100243.63
2018-12-10T19:29:12.685Z,100254.37
2018-12-10T19:31:40.558Z,100259.08
2018-12-10T19:34:08.481Z,100255.20
2018-12-10T19:36:36.361Z,100277.12
2018-12-10T19:39:06.768Z,100275.00
2018-12-10T19:41:34.653Z,100270.66
2018-12-10T19:44:02.632Z,100269.37
2018-12-10T19:46:30.520Z,100268.53
2018-12-10T19:48:58.520Z,100263.88
2018-12-10T19:51:26.403Z,100255.32
2018-12-10T19:53:54.313Z,100260.95
2018-12-10T19:56:22.225Z,100258.00
2018-12-10T19:58:50.402Z,100252.01
2018-12-10T20:01:18.297Z,100247.77
2018-12-10T20:03:46.284Z,100247.30
2018-12-10T20:06:16.238Z,100248.08
2018-12-10T20:08:44.570Z,100253.14
2018-12-10T20:11:12.529Z,100256.91
2018-12-10T20:13:40.479Z,100253.30
2018-12-10T20:16:08.428Z,100261.83
2018-12-10T20:18:36.314Z,100256.66
2018-12-10T20:21:04.227Z,100247.67
2018-12-10T20:23:32.106Z,100245.04
2018-12-10T20:26:00.453Z,100249.84
2018-12-10T20:28:28.461Z,100248.60
2018-12-10T20:30:56.463Z,100252.52
2018-12-10T20:33:24.348Z,100252.11
2018-12-10T20:35:52.277Z,100245.75
2018-12-10T20:38:20.250Z,100252.69
2018-12-10T20:40:48.162Z,100254.95
2018-12-10T20:43:16.051Z,100250.30
2018-12-10T20:45:44.019Z,100251.27
2018-12-10T20:48:11.932Z,100261.75
2018-12-10T20:50:39.842Z,100268.23
2018-12-10T20:53:07.724Z,100266.58
2018-12-10T20:55:35.728Z,100261.04
2018-12-10T20:58:03.611Z,100261.97
2018-12-10T21:00:31.519Z,100256.75
2018-12-10T21:02:59.424Z,100274.05
2018-12-10T21:05:27.330Z,100265.02
2018-12-10T21:07:55.223Z,100271.47
2018-12-10T21:10:23.127Z,100271.11
2018-12-10T21:12:51.012Z,100268.94
2018-12-10T21:15:18.907Z,100270.64
2018-12-10T21:17:46.811Z,100277.56
2018-12-10T21:20:15.146Z,100288.73
2018-12-10T21:22:43.038Z,100271.89
2018-12-10T21:25:11.062Z,100283.88
2018-12-10T21:27:39.055Z,100281.25
2018-12-10T21:30:07.980Z,100282.08
2018-12-10T21:32:36.084Z,100285.55
2018-12-10T21:35:04.434Z,100288.55
2018-12-10T21:37:32.312Z,100285.49
2018-12-10T21:40:00.404Z,100282.08
2018-12-10T21:42:28.291Z,100280.84
2018-12-10T21:44:56.171Z,100276.12
2018-12-10T21:47:24.196Z,100275.30
2018-12-10T21:49:52.098Z,100278.67
2018-12-10T21:52:19.974Z,100280.67
2018-12-10T21:54:47.876Z,100288.28
2018-12-10T21:57:15.769Z,100280.74
2018-12-10T21:59:43.735Z,100276.23
2018-12-10T22:02:11.804Z,100276.50
2018-12-10T22:04:39.692Z,100284.49
2018-12-10T22:07:07.621Z,100280.16
2018-12-10T22:09:35.663Z,100275.05
2018-12-10T22:12:03.640Z,100280.67
2018-12-10T22:14:31.593Z,100278.04
2018-12-10T22:16:59.645Z,100278.41
2018-12-10T22:19:27.548Z,100284.75
2018-12-10T22:21:55.444Z,100279.95
2018-12-10T22:24:23.466Z,100282.07
2018-12-10T22:26:51.376Z,100295.55
2018-12-10T22:29:19.288Z,100283.73
2018-12-10T22:31:47.212Z,100293.80
2018-12-10T22:34:15.128Z,100285.80
2018-12-10T22:36:43.051Z,100287.62
2018-12-10T22:39:11.168Z,100279.19
2018-12-10T22:41:39.059Z,100291.02
2018-12-10T22:44:07.056Z,100273.03
2018-12-10T22:46:35.168Z,100278.30
2018-12-10T22:49:03.072Z,100284.81
2018-12-10T22:51:30.975Z,100281.40
2018-12-10T22:53:58.904Z,100282.32
2018-12-10T22:56:26.851Z,100282.37
2018-12-10T22:58:54.796Z,100281.49
2018-12-10T23:01:22.991Z,100271.98
2018-12-10T23:03:50.871Z,100283.16
2018-12-10T23:06:18.864Z,100280.98
2018-12-10T23:08:46.805Z,100271.05
2018-12-10T23:11:14.683Z,100273.73
2018-12-10T23:13:42.596Z,100276.38
2018-12-10T23:16:10.594Z,100272.51
2018-12-10T23:18:38.488Z,100263.51
2018-12-10T23:21:06.403Z,100274.27
2018-12-10T23:23:34.331Z,100268.67
2018-12-10T23:26:02.239Z,100276.94
2018-12-10T23:28:30.139Z,100268.73
2018-12-10T23:30:58.107Z,100276.90
2018-12-10T23:33:26.010Z,100264.84
2018-12-10T23:35:53.892Z,100268.73
2018-12-10T23:38:21.911Z,100276.53
2018-12-10T23:40:49.873Z,100269.70
2018-12-10T23:43:23.416Z,100274.50
2018-12-10T23:45:51.311Z,100275.75
2018-12-10T23:48:19.253Z,100276.20
2018-12-10T23:50:47.383Z,100276.26
2018-12-10T23:53:15.340Z,100281.02
2018-12-10T23:55:43.214Z,100281.94
2018-12-10T23:58:11.119Z,100282.88
